Maersk Patras — 9V3818 — position and weather

sailwx.info

Track history (hours):
 
Tides and Currents Weather Stations Pressure Air Temp Water Temp Dewpoint Dewpoint Depression Visibility Wind Speed Wind Dir Waves Ship Positions

Maersk Patras

Last reported at 2017-Nov-18 15:00 UTC. Time now 2017-Nov-18 15:41 UTC.
Position N 09°25' W 015°10'.

; draft 7.9 m.

Type: Ship. MMSI: 565221000.

Date/timePositionNaut miles runAvg speedWind from/ knotsBaromVisibWave heightAir tempDewpointWater temp
2017-Nov-18 15:00N 09°25' W 015°10'812.8
2017-Nov-18 14:25N 09°24' W 015°02'512.9
2017-Nov-18 14:00N 09°23' W 014°57'713.1
2017-Nov-18 13:28N 09°22' W 014°50'613.4
2017-Nov-18 13:00N 09°21' W 014°44'713.0
2017-Nov-18 12:28N 09°20' W 014°37'613.2
2017-Nov-18 12:00N 09°20' W 014°31'713.2
2017-Nov-18 11:30N 09°20' W 014°24'713.2
2017-Nov-18 11:01N 09°20' W 014°17'713.1
2017-Nov-18 10:31N 09°20' W 014°11'813.1
2017-Nov-18 09:55N 09°20' W 014°03'513.1
2017-Nov-18 09:30N 09°20' W 013°57'713.3
2017-Nov-18 09:01N 09°20' W 013°51'814.6
2017-Nov-18 08:29N 09°22' W 013°43'510.6
2017-Nov-18 07:58N 09°27' W 013°43'3 6.9
2017-Nov-18 07:30N 09°30' W 013°44'0 0.6
2017-Nov-18 07:00N 09°31' W 013°43'0 0.0
2017-Nov-18 06:30N 09°31' W 013°43'0 0.0
2017-Nov-18 06:00N 09°31' W 013°43'0 0.0
2017-Nov-18 05:27N 09°31' W 013°43'0 0.0
2017-Nov-18 05:00N 09°31' W 013°43'0 0.0
2017-Nov-18 04:30N 09°31' W 013°43'0 0.0
2017-Nov-18 04:00N 09°31' W 013°43'0 0.0
2017-Nov-18 03:30N 09°31' W 013°43'0 0.0
2017-Nov-18 03:00N 09°31' W 013°43'0 0.0
2017-Nov-18 02:30N 09°31' W 013°43'0 0.0
2017-Nov-18 01:57N 09°31' W 013°43'0 0.0
2017-Nov-18 01:27N 09°31' W 013°43'0 0.0
2017-Nov-18 01:00N 09°31' W 013°43'0 0.0
2017-Nov-18 00:30N 09°31' W 013°43'0 0.0
2017-Nov-18 00:00N 09°31' W 013°43'0 0.0
2017-Nov-17 23:30N 09°31' W 013°43'0 0.0
2017-Nov-17 23:00N 09°31' W 013°43'0 0.0
2017-Nov-17 22:30N 09°31' W 013°43'0 0.0
2017-Nov-17 22:00N 09°31' W 013°43'0 0.0
2017-Nov-17 21:30N 09°31' W 013°43'0 0.0
2017-Nov-17 21:00N 09°31' W 013°43'0 0.0
2017-Nov-17 20:30N 09°31' W 013°43'0 0.0
2017-Nov-17 20:00N 09°31' W 013°43'0 0.0
2017-Nov-17 19:30N 09°31' W 013°43'0 0.0
2017-Nov-17 19:00N 09°31' W 013°43'0 0.0
2017-Nov-17 18:30N 09°31' W 013°43'0 0.0
2017-Nov-17 18:00N 09°31' W 013°43'0 0.0
2017-Nov-17 17:30N 09°31' W 013°43'0 0.0
2017-Nov-17 17:00N 09°31' W 013°43'0 0.0
2017-Nov-17 16:30N 09°31' W 013°43'0 0.0
2017-Nov-17 16:00N 09°31' W 013°43'0 0.0
2017-Nov-17 15:30N 09°31' W 013°43'0 0.0
2017-Nov-17 15:00N 09°31' W 013°43'0 0.0
2017-Nov-17 14:30N 09°31' W 013°43'0 0.0
2017-Nov-17 14:00N 09°31' W 013°43'0 0.0
2017-Nov-17 13:30N 09°31' W 013°43'0 0.0
2017-Nov-17 13:00N 09°31' W 013°43'0 0.0
2017-Nov-17 12:30N 09°31' W 013°43'0 0.0
2017-Nov-17 12:00N 09°31' W 013°43'0 0.0
2017-Nov-17 11:30N 09°31' W 013°43'0 0.0
2017-Nov-17 11:00N 09°31' W 013°43'0 0.0
2017-Nov-17 10:30N 09°31' W 013°43'0 0.0
2017-Nov-17 10:00N 09°31' W 013°43'0 0.0
2017-Nov-17 09:30N 09°31' W 013°43'1 1.4
2017-Nov-17 09:00N 09°30' W 013°44'2 4.7
2017-Nov-17 08:31N 09°28' W 013°43'0 0.7
2017-Nov-17 08:00N 09°27' W 013°43'4 7.7
2017-Nov-17 07:30N 09°24' W 013°42'3 6.3
2017-Nov-17 07:00N 09°21' W 013°43'4 7.5
2017-Nov-17 06:30N 09°17' W 013°45'4 8.3
2017-Nov-17 06:00N 09°14' W 013°48'713.4
2017-Nov-17 05:30N 09°09' W 013°52'713.9
2017-Nov-17 05:00N 09°03' W 013°57'814.8
2017-Nov-17 04:30N 08°57' W 013°60'4517.8
2017-Nov-17 02:00N 08°12' W 014°00'16814.0 220 / 81013.410.8 28.023.729.0
2017-Nov-16 14:00N 05°54' W 012°24'5513.8 180 / 81014.210.8 27.022.628.0
2017-Nov-16 10:00N 05°12' W 011°48'8911.1 170 / 81010.9 5.4 27.024.128.0
2017-Nov-16 02:00N 04°06' W 010°48'17811.1 160 / 151012.2 5.4 26.024.628.0
2017-Nov-15 10:00N 01°54' W 008°48'11512.7 160 / 151011.410.8 28.023.728.0
2017-Nov-15 01:00N 00°30' W 007°30'14413.1 160 / 151013.210.8 26.023.128.0
2017-Nov-14 14:00S 01°12' W 005°48'4711.7 160 / 151012.210.8 27.022.626.0
2017-Nov-14 10:00S 01°48' W 005°18'9812.2 160 / 151012.710.8 28.521.926.0
2017-Nov-14 02:00S 03°00' W 004°12'15712.1 150 / 201012.310.8 24.019.426.0
2017-Nov-13 13:00S 04°54' W 002°24'5112.7 150 / 201014.210.8 27.017.524.0
2017-Nov-13 09:00S 05°30' W 001°48'9411.7 140 / 171012.910.8 25.017.024.0
2017-Nov-13 01:00S 06°42' W 000°48'15211.7 150 / 151015.310.8 23.016.523.0
2017-Nov-12 12:00S 08°36' E 000°54'4715.5 150 / 201016.310.8 23.016.523.0
2017-Nov-12 09:00S 09°12' E 001°24'9313.2 140 / 181013.310.8 23.016.523.0
2017-Nov-12 02:00S 10°18' E 002°30'16411.7 140 / 151016.310.8 21.016.023.0
2017-Nov-11 12:00S 12°18' E 004°24'4611.6 160 / 151016.310.8 24.015.821.0
2017-Nov-11 08:00S 12°54' E 004°54'10511.6 160 / 161013.027.0 21.016.021.0
2017-Nov-10 23:00S 14°12' E 006°06'13011.8 160 / 81015.310.8 19.013.820.0
2017-Nov-10 12:00S 15°48' E 007°36'5012.5 160 / 151016.310.8 21.014.220.0
2017-Nov-10 08:00S 16°24' E 008°12'10012.5 160 / 141012.710.8 19.013.821.0
2017-Nov-10 00:00S 17°36' E 009°24'14912.5 160 / 201015.410.8 18.014.619.0
2017-Nov-09 12:00S 19°30' E 011°06'4110.3 160 / 81015.310.8 20.014.919.0
2017-Nov-09 08:00S 20°00' E 011°36'   170 / 121011.410.8 18.014.618.0
Track history (hours):
 
Tides and Currents Weather Stations Pressure Air Temp Water Temp Dewpoint Dewpoint Depression Visibility Wind Speed Wind Dir Waves Ship Positions

Maersk Patras

Last reported at 2017-Nov-18 15:00 UTC. Time now 2017-Nov-18 15:41 UTC.
Position N 09°25' W 015°10'.

; draft 7.9 m.

Type: Ship. MMSI: 565221000.

Date/timePositionNaut miles runAvg speedWind from/ knotsBaromVisibWave heightAir tempDewpointWater temp
2017-Nov-18 15:00N 09°25' W 015°10'812.8
2017-Nov-18 14:25N 09°24' W 015°02'512.9
2017-Nov-18 14:00N 09°23' W 014°57'713.1
2017-Nov-18 13:28N 09°22' W 014°50'613.4
2017-Nov-18 13:00N 09°21' W 014°44'713.0
2017-Nov-18 12:28N 09°20' W 014°37'613.2
2017-Nov-18 12:00N 09°20' W 014°31'713.2
2017-Nov-18 11:30N 09°20' W 014°24'713.2
2017-Nov-18 11:01N 09°20' W 014°17'713.1
2017-Nov-18 10:31N 09°20' W 014°11'813.1
2017-Nov-18 09:55N 09°20' W 014°03'513.1
2017-Nov-18 09:30N 09°20' W 013°57'713.3
2017-Nov-18 09:01N 09°20' W 013°51'814.6
2017-Nov-18 08:29N 09°22' W 013°43'510.6
2017-Nov-18 07:58N 09°27' W 013°43'3 6.9
2017-Nov-18 07:30N 09°30' W 013°44'0 0.6
2017-Nov-18 07:00N 09°31' W 013°43'0 0.0
2017-Nov-18 06:30N 09°31' W 013°43'0 0.0
2017-Nov-18 06:00N 09°31' W 013°43'0 0.0
2017-Nov-18 05:27N 09°31' W 013°43'0 0.0
2017-Nov-18 05:00N 09°31' W 013°43'0 0.0
2017-Nov-18 04:30N 09°31' W 013°43'0 0.0
2017-Nov-18 04:00N 09°31' W 013°43'0 0.0
2017-Nov-18 03:30N 09°31' W 013°43'0 0.0
2017-Nov-18 03:00N 09°31' W 013°43'0 0.0
2017-Nov-18 02:30N 09°31' W 013°43'0 0.0
2017-Nov-18 01:57N 09°31' W 013°43'0 0.0
2017-Nov-18 01:27N 09°31' W 013°43'0 0.0
2017-Nov-18 01:00N 09°31' W 013°43'0 0.0
2017-Nov-18 00:30N 09°31' W 013°43'0 0.0
2017-Nov-18 00:00N 09°31' W 013°43'0 0.0
2017-Nov-17 23:30N 09°31' W 013°43'0 0.0
2017-Nov-17 23:00N 09°31' W 013°43'0 0.0
2017-Nov-17 22:30N 09°31' W 013°43'0 0.0
2017-Nov-17 22:00N 09°31' W 013°43'0 0.0
2017-Nov-17 21:30N 09°31' W 013°43'0 0.0
2017-Nov-17 21:00N 09°31' W 013°43'0 0.0
2017-Nov-17 20:30N 09°31' W 013°43'0 0.0
2017-Nov-17 20:00N 09°31' W 013°43'0 0.0
2017-Nov-17 19:30N 09°31' W 013°43'0 0.0
2017-Nov-17 19:00N 09°31' W 013°43'0 0.0
2017-Nov-17 18:30N 09°31' W 013°43'0 0.0
2017-Nov-17 18:00N 09°31' W 013°43'0 0.0
2017-Nov-17 17:30N 09°31' W 013°43'0 0.0
2017-Nov-17 17:00N 09°31' W 013°43'0 0.0
2017-Nov-17 16:30N 09°31' W 013°43'0 0.0
2017-Nov-17 16:00N 09°31' W 013°43'0 0.0
2017-Nov-17 15:30N 09°31' W 013°43'0 0.0
2017-Nov-17 15:00N 09°31' W 013°43'0 0.0
2017-Nov-17 14:30N 09°31' W 013°43'0 0.0
2017-Nov-17 14:00N 09°31' W 013°43'0 0.0
2017-Nov-17 13:30N 09°31' W 013°43'0 0.0
2017-Nov-17 13:00N 09°31' W 013°43'0 0.0
2017-Nov-17 12:30N 09°31' W 013°43'0 0.0
2017-Nov-17 12:00N 09°31' W 013°43'0 0.0
2017-Nov-17 11:30N 09°31' W 013°43'0 0.0
2017-Nov-17 11:00N 09°31' W 013°43'0 0.0
2017-Nov-17 10:30N 09°31' W 013°43'0 0.0
2017-Nov-17 10:00N 09°31' W 013°43'0 0.0
2017-Nov-17 09:30N 09°31' W 013°43'1 1.4
2017-Nov-17 09:00N 09°30' W 013°44'2 4.7
2017-Nov-17 08:31N 09°28' W 013°43'0 0.7
2017-Nov-17 08:00N 09°27' W 013°43'4 7.7
2017-Nov-17 07:30N 09°24' W 013°42'3 6.3
2017-Nov-17 07:00N 09°21' W 013°43'4 7.5
2017-Nov-17 06:30N 09°17' W 013°45'4 8.3
2017-Nov-17 06:00N 09°14' W 013°48'713.4
2017-Nov-17 05:30N 09°09' W 013°52'713.9
2017-Nov-17 05:00N 09°03' W 013°57'814.8
2017-Nov-17 04:30N 08°57' W 013°60'4517.8
2017-Nov-17 02:00N 08°12' W 014°00'16814.0 220 / 81013.410.8 28.023.729.0
2017-Nov-16 14:00N 05°54' W 012°24'5513.8 180 / 81014.210.8 27.022.628.0
2017-Nov-16 10:00N 05°12' W 011°48'8911.1 170 / 81010.9 5.4 27.024.128.0
2017-Nov-16 02:00N 04°06' W 010°48'17811.1 160 / 151012.2 5.4 26.024.628.0
2017-Nov-15 10:00N 01°54' W 008°48'11512.7 160 / 151011.410.8 28.023.728.0
2017-Nov-15 01:00N 00°30' W 007°30'14413.1 160 / 151013.210.8 26.023.128.0
2017-Nov-14 14:00S 01°12' W 005°48'4711.7 160 / 151012.210.8 27.022.626.0
2017-Nov-14 10:00S 01°48' W 005°18'9812.2 160 / 151012.710.8 28.521.926.0
2017-Nov-14 02:00S 03°00' W 004°12'15712.1 150 / 201012.310.8 24.019.426.0
2017-Nov-13 13:00S 04°54' W 002°24'5112.7 150 / 201014.210.8 27.017.524.0
2017-Nov-13 09:00S 05°30' W 001°48'9411.7 140 / 171012.910.8 25.017.024.0
2017-Nov-13 01:00S 06°42' W 000°48'15211.7 150 / 151015.310.8 23.016.523.0
2017-Nov-12 12:00S 08°36' E 000°54'4715.5 150 / 201016.310.8 23.016.523.0
2017-Nov-12 09:00S 09°12' E 001°24'9313.2 140 / 181013.310.8 23.016.523.0
2017-Nov-12 02:00S 10°18' E 002°30'16411.7 140 / 151016.310.8 21.016.023.0
2017-Nov-11 12:00S 12°18' E 004°24'4611.6 160 / 151016.310.8 24.015.821.0
2017-Nov-11 08:00S 12°54' E 004°54'10511.6 160 / 161013.027.0 21.016.021.0
2017-Nov-10 23:00S 14°12' E 006°06'13011.8 160 / 81015.310.8 19.013.820.0
2017-Nov-10 12:00S 15°48' E 007°36'5012.5 160 / 151016.310.8 21.014.220.0
2017-Nov-10 08:00S 16°24' E 008°12'10012.5 160 / 141012.710.8 19.013.821.0
2017-Nov-10 00:00S 17°36' E 009°24'14912.5 160 / 201015.410.8 18.014.619.0
2017-Nov-09 12:00S 19°30' E 011°06'4110.3 160 / 81015.310.8 20.014.919.0
2017-Nov-09 08:00S 20°00' E 011°36'   170 / 121011.410.8 18.014.618.0

Dump ship's entire track history